Time;durP1;ratioP1;P1;durP2;ratioP2;P2;SDS_P1;SDS_P2;PMS_P1;PMS_P2;Temp;Humidity;BMP_temperature;BMP_pressure;BME280_temperature;BME280_humidity;BME280_pressure;Samples;Min_cycle;Max_cycle;Signal;HPM_P1;HPM_P2
2023/12/05 00:01:29;;;;;;;16.58;12.43;;;3.20;99.90;;;;;;5071015;28;20196;-86
2023/12/05 00:04:16;;;;;;;20.35;12.77;;;3.20;99.90;;;;;;5068751;28;20310;-86
2023/12/05 00:07:02;;;;;;;14.98;11.75;;;3.30;99.90;;;;;;5070024;28;20351;-85
2023/12/05 00:09:47;;;;;;;15.35;12.07;;;3.20;99.90;;;;;;5074616;28;20211;-85
2023/12/05 00:12:33;;;;;;;16.15;11.32;;;3.20;99.90;;;;;;5071197;28;20893;-86
2023/12/05 00:15:19;;;;;;;13.93;11.52;;;3.20;99.90;;;;;;5072111;28;20689;-85
2023/12/05 00:18:04;;;;;;;16.65;12.30;;;3.20;99.90;;;;;;5069396;28;20203;-86
2023/12/05 00:20:51;;;;;;;17.02;12.25;;;3.20;99.90;;;;;;5071103;28;20341;-85
2023/12/05 00:23:37;;;;;;;14.32;10.23;;;3.20;99.90;;;;;;5070095;28;20227;-84
2023/12/05 00:26:23;;;;;;;16.15;11.52;;;3.20;99.90;;;;;;5069213;28;20212;-85
2023/12/05 00:29:09;;;;;;;19.45;11.52;;;3.30;99.90;;;;;;5072423;28;20295;-83
2023/12/05 00:31:54;;;;;;;20.50;11.90;;;3.30;99.90;;;;;;5070613;28;20204;-86
2023/12/05 00:34:40;;;;;;;13.70;11.65;;;3.30;99.90;;;;;;5070193;28;20240;-85
2023/12/05 00:37:27;;;;;;;14.23;10.05;;;3.30;99.90;;;;;;5072279;28;20212;-85
2023/12/05 00:40:13;;;;;;;16.35;10.40;;;3.30;99.90;;;;;;5070972;28;20207;-85
2023/12/05 00:42:59;;;;;;;15.77;11.38;;;3.30;99.90;;;;;;5072062;28;21371;-85
2023/12/05 00:45:44;;;;;;;18.20;11.63;;;3.30;99.90;;;;;;5072605;28;20323;-86
2023/12/05 00:48:30;;;;;;;16.15;11.57;;;3.30;99.90;;;;;;5071363;28;20883;-85
2023/12/05 00:51:16;;;;;;;14.10;10.77;;;3.40;99.90;;;;;;5074557;28;20191;-85
2023/12/05 00:54:03;;;;;;;14.60;10.98;;;3.40;99.90;;;;;;5070513;28;20231;-85
2023/12/05 00:56:49;;;;;;;14.65;9.85;;;3.40;99.90;;;;;;5078653;28;20722;-85
2023/12/05 00:59:35;;;;;;;13.68;10.73;;;3.40;99.90;;;;;;5068285;28;20692;-85
2023/12/05 01:02:20;;;;;;;16.55;11.95;;;3.40;99.90;;;;;;5076722;28;20216;-85
2023/12/05 01:05:08;;;;;;;13.00;10.20;;;3.40;99.90;;;;;;5072925;28;20677;-86
2023/12/05 01:07:53;;;;;;;13.60;10.95;;;3.40;99.90;;;;;;5073553;28;20197;-85
2023/12/05 01:10:41;;;;;;;16.15;11.45;;;3.40;99.90;;;;;;5075418;28;20809;-85
2023/12/05 01:13:26;;;;;;;13.02;11.13;;;3.40;99.90;;;;;;5068006;28;20262;-85
2023/12/05 01:16:14;;;;;;;20.27;11.63;;;3.40;99.90;;;;;;5070505;28;20227;-85
2023/12/05 01:18:59;;;;;;;12.93;10.25;;;3.40;99.90;;;;;;5070891;28;20904;-85
2023/12/05 01:21:45;;;;;;;15.15;11.10;;;3.50;99.90;;;;;;5071271;28;20197;-84
2023/12/05 01:24:31;;;;;;;12.57;10.18;;;3.50;99.90;;;;;;5069475;28;20242;-85
2023/12/05 01:27:18;;;;;;;16.13;11.48;;;3.40;99.90;;;;;;5072356;28;20269;-85
2023/12/05 01:30:04;;;;;;;15.40;11.20;;;3.40;99.90;;;;;;5073272;28;20211;-85
2023/12/05 01:32:50;;;;;;;13.85;10.43;;;3.40;99.90;;;;;;5068283;28;20216;-86
2023/12/05 01:35:37;;;;;;;15.32;11.65;;;3.50;99.90;;;;;;5068816;28;20227;-84
2023/12/05 01:38:22;;;;;;;16.27;12.25;;;3.50;99.90;;;;;;5068273;28;20732;-85
2023/12/05 01:41:08;;;;;;;16.55;10.75;;;3.50;99.90;;;;;;5069898;28;20266;-87
2023/12/05 01:43:55;;;;;;;15.75;12.10;;;3.60;99.90;;;;;;5067533;28;20224;-85
2023/12/05 01:46:42;;;;;;;17.50;12.73;;;3.60;99.90;;;;;;5064467;28;20250;-85
2023/12/05 01:49:28;;;;;;;14.50;11.52;;;3.50;99.90;;;;;;5070794;28;20196;-85
2023/12/05 01:52:14;;;;;;;20.48;13.45;;;3.60;99.90;;;;;;5073263;28;20201;-85
2023/12/05 01:54:59;;;;;;;14.57;11.27;;;3.60;99.90;;;;;;5072418;28;20232;-85
2023/12/05 01:57:47;;;;;;;14.20;11.70;;;3.60;99.90;;;;;;5067224;28;20207;-85
2023/12/05 02:00:34;;;;;;;12.32;10.77;;;3.60;99.90;;;;;;5069869;28;20199;-86
2023/12/05 02:03:20;;;;;;;14.30;10.32;;;3.70;99.90;;;;;;5069958;28;20228;-85
2023/12/05 02:06:05;;;;;;;15.10;10.57;;;3.70;99.90;;;;;;5075397;28;20204;-85
2023/12/05 02:08:52;;;;;;;12.02;8.95;;;3.70;99.90;;;;;;5067039;28;20742;-86
2023/12/05 02:11:38;;;;;;;13.20;9.95;;;3.80;99.90;;;;;;5066154;28;20258;-85
2023/12/05 02:14:24;;;;;;;13.73;9.85;;;3.80;99.90;;;;;;5072146;28;20314;-86
2023/12/05 02:17:20;;;;;;;12.90;9.77;;;3.90;99.90;;;;;;5068933;28;20346;-85
2023/12/05 02:20:11;;;;;;;12.25;10.18;;;3.90;99.90;;;;;;5070353;28;20203;-85
2023/12/05 02:23:18;;;;;;;14.40;10.10;;;3.90;99.90;;;;;;5074278;28;20196;-85
2023/12/05 02:26:11;;;;;;;15.43;10.20;;;4.10;99.90;;;;;;5072237;28;20274;-85
2023/12/05 02:28:58;;;;;;;9.40;7.45;;;4.10;99.90;;;;;;5069362;28;20272;-85
2023/12/05 02:31:44;;;;;;;9.18;7.25;;;4.20;99.90;;;;;;5070222;28;20224;-85
2023/12/05 02:34:30;;;;;;;8.27;7.38;;;4.40;99.90;;;;;;5072995;28;20225;-85
2023/12/05 02:37:22;;;;;;;9.38;6.93;;;4.60;99.90;;;;;;5072292;28;20682;-86
2023/12/05 02:40:15;;;;;;;9.60;6.70;;;4.70;99.90;;;;;;5070673;28;20208;-85
2023/12/05 02:43:05;;;;;;;9.65;6.75;;;4.80;99.90;;;;;;5072180;28;20397;-85
2023/12/05 02:45:55;;;;;;;8.98;6.93;;;5.00;99.90;;;;;;5070968;28;20259;-85
2023/12/05 02:48:42;;;;;;;10.52;7.38;;;5.10;99.90;;;;;;5071463;28;20723;-86
2023/12/05 02:51:27;;;;;;;10.43;6.57;;;5.20;99.90;;;;;;5071903;28;20296;-85
2023/12/05 02:54:13;;;;;;;12.27;6.00;;;5.40;99.90;;;;;;5071370;28;20228;-86
2023/12/05 02:56:58;;;;;;;7.67;5.87;;;5.40;99.90;;;;;;5068249;28;20226;-86
2023/12/05 02:59:44;;;;;;;6.10;5.20;;;5.40;99.90;;;;;;5071415;28;20432;-87
2023/12/05 03:02:31;;;;;;;10.25;5.93;;;5.50;99.90;;;;;;5071758;28;20204;-86
2023/12/05 03:05:18;;;;;;;8.38;6.20;;;5.50;99.90;;;;;;5074020;28;20282;-86
2023/12/05 03:08:03;;;;;;;10.52;6.85;;;5.70;99.90;;;;;;5071421;28;20205;-83
2023/12/05 03:10:49;;;;;;;8.23;6.15;;;5.80;99.90;;;;;;5068038;28;20278;-84
2023/12/05 03:13:38;;;;;;;7.60;5.55;;;5.90;99.90;;;;;;5073883;28;20243;-85
2023/12/05 03:16:24;;;;;;;8.37;5.67;;;5.90;99.90;;;;;;5076538;28;20696;-85
2023/12/05 03:19:10;;;;;;;7.75;5.40;;;6.00;99.90;;;;;;5071395;28;20443;-86
2023/12/05 03:21:56;;;;;;;8.73;5.47;;;6.00;99.90;;;;;;5072555;28;20779;-86
2023/12/05 03:24:42;;;;;;;9.07;4.90;;;6.00;99.90;;;;;;5076936;28;20725;-85
2023/12/05 03:27:27;;;;;;;8.10;5.63;;;6.00;99.90;;;;;;5074054;28;20238;-86
2023/12/05 03:30:14;;;;;;;8.32;4.80;;;6.00;99.90;;;;;;5069495;28;20213;-85
2023/12/05 03:32:59;;;;;;;6.22;4.82;;;6.10;99.90;;;;;;5072964;28;20331;-85
2023/12/05 03:35:46;;;;;;;8.68;5.30;;;6.00;99.90;;;;;;5081631;28;20275;-85
2023/12/05 03:38:32;;;;;;;7.25;5.28;;;6.00;99.90;;;;;;5076198;28;20251;-85
2023/12/05 03:41:18;;;;;;;9.05;5.32;;;6.10;99.90;;;;;;5073517;28;20209;-85
2023/12/05 03:44:03;;;;;;;6.07;4.63;;;6.20;99.90;;;;;;5078546;28;20339;-85
2023/12/05 03:46:49;;;;;;;6.97;4.95;;;6.20;99.90;;;;;;5072402;28;20501;-85
2023/12/05 03:49:35;;;;;;;6.80;5.00;;;6.20;99.90;;;;;;5078552;28;20703;-85
2023/12/05 03:52:22;;;;;;;8.65;6.50;;;6.20;99.90;;;;;;5072156;28;20450;-85
2023/12/05 03:55:08;;;;;;;8.73;4.43;;;6.30;99.90;;;;;;5069540;28;20566;-85
2023/12/05 03:57:54;;;;;;;10.05;5.38;;;6.40;99.90;;;;;;5071179;28;20717;-86
2023/12/05 04:00:40;;;;;;;7.50;4.53;;;6.40;99.90;;;;;;5068999;28;20279;-85
2023/12/05 04:03:25;;;;;;;6.38;4.53;;;6.40;99.90;;;;;;5079065;28;20341;-85
2023/12/05 04:06:20;;;;;;;10.07;4.20;;;6.40;99.90;;;;;;5070558;28;20208;-85
2023/12/05 04:09:07;;;;;;;10.38;4.85;;;6.40;99.90;;;;;;5071500;28;20584;-85
2023/12/05 04:11:53;;;;;;;8.43;4.00;;;6.40;99.90;;;;;;5071540;28;20212;-85
2023/12/05 04:14:40;;;;;;;5.95;4.10;;;6.40;99.90;;;;;;5073547;28;20269;-86
2023/12/05 04:17:25;;;;;;;6.50;4.15;;;6.50;99.90;;;;;;5072644;28;20805;-85
2023/12/05 04:20:12;;;;;;;6.60;4.18;;;6.50;99.90;;;;;;5069752;28;20200;-85
2023/12/05 04:22:58;;;;;;;4.65;3.40;;;6.50;99.90;;;;;;5076846;28;20213;-85
2023/12/05 04:25:45;;;;;;;5.90;3.67;;;6.60;99.90;;;;;;5070578;28;20216;-85
2023/12/05 04:28:32;;;;;;;5.53;3.80;;;6.60;99.90;;;;;;5070181;28;20818;-85
2023/12/05 04:31:17;;;;;;;6.05;3.65;;;6.70;99.90;;;;;;5080811;28;20303;-85
2023/12/05 04:34:03;;;;;;;5.63;3.85;;;6.70;99.90;;;;;;5071255;28;20225;-83
2023/12/05 04:36:49;;;;;;;4.25;3.40;;;6.70;99.90;;;;;;5070934;28;20327;-86
2023/12/05 04:39:35;;;;;;;8.48;3.55;;;6.70;99.90;;;;;;5073579;28;20200;-85
2023/12/05 04:42:22;;;;;;;4.80;3.67;;;6.70;99.90;;;;;;5072690;28;20589;-84
2023/12/05 04:45:08;;;;;;;3.92;3.38;;;6.70;99.90;;;;;;5070730;28;20200;-85
2023/12/05 04:47:53;;;;;;;5.40;3.60;;;6.70;99.90;;;;;;5076763;28;20250;-84
2023/12/05 04:50:39;;;;;;;5.15;3.03;;;6.70;99.90;;;;;;5070789;28;20453;-84
2023/12/05 04:53:25;;;;;;;6.18;3.55;;;6.60;99.90;;;;;;5076635;28;20215;-86
2023/12/05 04:56:12;;;;;;;6.18;4.65;;;6.70;99.90;;;;;;5078251;28;20197;-85
2023/12/05 04:58:59;;;;;;;6.20;3.47;;;6.60;99.90;;;;;;5076831;28;20224;-85
2023/12/05 05:01:44;;;;;;;5.10;3.42;;;6.70;99.90;;;;;;5070063;28;20200;-86
2023/12/05 05:04:30;;;;;;;5.32;3.55;;;6.70;99.90;;;;;;5071079;28;20328;-85
2023/12/05 05:07:16;;;;;;;5.45;3.78;;;6.70;99.90;;;;;;5069385;28;20422;-85
2023/12/05 05:10:02;;;;;;;4.23;2.70;;;6.70;99.90;;;;;;5069395;28;20205;-85
2023/12/05 05:12:48;;;;;;;4.38;3.00;;;6.70;99.90;;;;;;5072461;28;20453;-85
2023/12/05 05:15:35;;;;;;;3.30;2.60;;;6.70;99.90;;;;;;5074178;28;20218;-86
2023/12/05 05:18:21;;;;;;;5.90;3.25;;;6.70;99.90;;;;;;5072187;28;20816;-85
2023/12/05 05:21:07;;;;;;;4.60;2.73;;;6.70;99.90;;;;;;5075782;28;20250;-85
2023/12/05 05:23:53;;;;;;;5.20;2.92;;;6.80;99.90;;;;;;5071696;28;20476;-85
2023/12/05 05:26:38;;;;;;;4.97;2.75;;;6.80;99.90;;;;;;5082254;28;20219;-84
2023/12/05 05:29:24;;;;;;;3.40;2.43;;;6.80;99.90;;;;;;5074295;28;20191;-85
2023/12/05 05:32:11;;;;;;;4.97;3.30;;;6.90;99.90;;;;;;5072066;28;20444;-85
2023/12/05 05:34:57;;;;;;;4.22;2.30;;;6.90;99.90;;;;;;5072579;28;20525;-86
2023/12/05 05:37:42;;;;;;;5.32;2.53;;;6.90;99.90;;;;;;5070518;28;20351;-86
2023/12/05 05:40:28;;;;;;;4.47;2.60;;;6.90;99.90;;;;;;5067909;28;20268;-86
2023/12/05 05:43:14;;;;;;;4.50;2.70;;;6.80;99.90;;;;;;5067908;28;20467;-85
2023/12/05 05:46:00;;;;;;;3.80;2.47;;;6.80;99.90;;;;;;5066657;28;20234;-84
2023/12/05 05:48:47;;;;;;;4.60;2.60;;;6.80;99.90;;;;;;5068537;28;20295;-85
2023/12/05 05:51:33;;;;;;;3.37;2.40;;;6.80;99.90;;;;;;5067976;28;20281;-85
2023/12/05 05:54:18;;;;;;;8.63;3.90;;;6.80;99.90;;;;;;5076312;28;20990;-85
2023/12/05 05:57:05;;;;;;;3.60;2.33;;;6.70;99.90;;;;;;5077229;28;20711;-85
2023/12/05 05:59:51;;;;;;;4.13;2.38;;;6.70;99.90;;;;;;5073147;28;20592;-85
2023/12/05 06:02:36;;;;;;;5.07;2.95;;;6.70;99.90;;;;;;5072767;28;20199;-85
2023/12/05 06:05:24;;;;;;;6.68;2.97;;;6.70;99.90;;;;;;5078441;28;20322;-85
2023/12/05 06:08:10;;;;;;;5.00;2.72;;;6.70;99.90;;;;;;5078405;28;20256;-85
2023/12/05 06:10:55;;;;;;;3.15;2.22;;;6.70;99.90;;;;;;5072221;28;20214;-86
2023/12/05 06:13:41;;;;;;;3.70;2.45;;;6.70;99.90;;;;;;5070053;28;20225;-85
2023/12/05 06:16:27;;;;;;;6.30;3.00;;;6.70;99.90;;;;;;5074035;28;20231;-86
2023/12/05 06:19:13;;;;;;;8.18;3.35;;;6.70;99.90;;;;;;5069742;28;20292;-85
2023/12/05 06:22:00;;;;;;;4.68;2.40;;;6.70;99.90;;;;;;5075694;28;20240;-85
2023/12/05 06:24:45;;;;;;;6.40;3.17;;;6.70;99.90;;;;;;5077197;28;20319;-83
2023/12/05 06:27:31;;;;;;;6.78;2.50;;;6.70;99.90;;;;;;5071020;28;20466;-85
2023/12/05 06:30:17;;;;;;;5.22;2.70;;;6.70;99.90;;;;;;5078454;28;20208;-86
2023/12/05 06:33:02;;;;;;;5.28;2.63;;;6.70;99.90;;;;;;5072061;28;20300;-86
2023/12/05 06:35:48;;;;;;;5.50;2.40;;;6.70;99.90;;;;;;5074075;28;20205;-85
2023/12/05 06:38:35;;;;;;;2.60;1.90;;;6.70;99.90;;;;;;5076923;28;20224;-84
2023/12/05 06:41:21;;;;;;;5.60;2.40;;;6.70;99.90;;;;;;5071678;28;20443;-85
2023/12/05 06:44:07;;;;;;;4.72;2.08;;;6.80;99.90;;;;;;5072166;28;20336;-84
2023/12/05 06:46:52;;;;;;;6.03;2.80;;;6.80;99.90;;;;;;5074909;28;20224;-86
2023/12/05 06:49:38;;;;;;;4.32;2.53;;;6.80;99.90;;;;;;5072442;28;20936;-85
2023/12/05 06:52:24;;;;;;;2.40;1.70;;;6.80;99.90;;;;;;5077935;28;20563;-85
2023/12/05 06:55:11;;;;;;;4.93;1.80;;;6.90;99.90;;;;;;5073610;28;20822;-85
2023/12/05 06:57:57;;;;;;;3.77;2.20;;;6.90;99.90;;;;;;5074566;28;20467;-86
2023/12/05 07:00:43;;;;;;;5.27;1.63;;;7.00;99.90;;;;;;5073519;28;20444;-86
2023/12/05 07:03:29;;;;;;;6.07;2.20;;;7.00;99.90;;;;;;5072603;28;20848;-86
2023/12/05 07:06:15;;;;;;;8.52;2.42;;;7.00;99.90;;;;;;5074781;28;20454;-85
2023/12/05 07:09:00;;;;;;;5.70;2.00;;;7.00;99.90;;;;;;5071217;28;20300;-85
2023/12/05 07:11:47;;;;;;;3.60;1.65;;;7.00;99.90;;;;;;5073551;28;20522;-86
2023/12/05 07:14:35;;;;;;;3.35;1.60;;;7.00;99.90;;;;;;5068123;28;20751;-85
2023/12/05 07:17:21;;;;;;;5.38;1.73;;;7.00;99.90;;;;;;5069349;28;20983;-85
2023/12/05 07:20:08;;;;;;;3.23;2.00;;;7.00;99.90;;;;;;5071187;28;20201;-86
2023/12/05 07:22:54;;;;;;;5.22;1.70;;;7.00;99.90;;;;;;5076480;28;20520;-87
2023/12/05 07:25:40;;;;;;;4.07;1.83;;;7.00;99.90;;;;;;5067988;28;20225;-85
2023/12/05 07:28:27;;;;;;;8.20;2.22;;;7.00;99.90;;;;;;5071054;28;20981;-85
2023/12/05 07:31:13;;;;;;;4.30;2.10;;;7.00;99.90;;;;;;5068926;28;20286;-86
2023/12/05 07:33:58;;;;;;;6.72;1.70;;;7.10;99.90;;;;;;5069349;28;20468;-85
2023/12/05 07:36:44;;;;;;;6.57;2.93;;;7.10;99.90;;;;;;5071768;28;20207;-86
2023/12/05 07:39:31;;;;;;;4.25;2.00;;;7.10;99.90;;;;;;5070777;28;20514;-87
2023/12/05 07:42:17;;;;;;;4.20;1.63;;;7.10;99.90;;;;;;5070506;28;20196;-88
2023/12/05 07:45:07;;;;;;;5.85;2.10;;;7.10;99.90;;;;;;5078782;28;20228;-87
2023/12/05 07:47:53;;;;;;;6.10;2.38;;;7.10;99.90;;;;;;5070689;28;20213;-87
2023/12/05 07:50:40;;;;;;;4.20;1.87;;;7.00;99.90;;;;;;5068967;28;20331;-86
2023/12/05 07:53:25;;;;;;;4.85;1.70;;;7.10;99.90;;;;;;5078686;28;20558;-87
2023/12/05 07:56:12;;;;;;;2.03;1.30;;;7.10;99.90;;;;;;5068760;28;20197;-87
2023/12/05 07:58:57;;;;;;;3.77;1.33;;;7.00;99.90;;;;;;5066947;28;20513;-87
2023/12/05 08:01:46;;;;;;;2.38;1.45;;;7.10;99.90;;;;;;5077151;28;20807;-86
2023/12/05 08:04:31;;;;;;;3.53;1.87;;;7.10;99.90;;;;;;5081147;28;20310;-86
2023/12/05 08:07:18;;;;;;;8.10;1.95;;;7.00;99.90;;;;;;5088563;28;20438;-86
2023/12/05 08:10:03;;;;;;;2.40;1.33;;;7.00;99.90;;;;;;5086144;28;20274;-86
2023/12/05 08:12:49;;;;;;;3.30;1.97;;;7.00;99.90;;;;;;5089447;28;20346;-87
2023/12/05 08:15:35;;;;;;;3.47;1.50;;;7.00;99.90;;;;;;5080320;28;20473;-87
2023/12/05 08:18:22;;;;;;;4.63;1.73;;;7.00;99.90;;;;;;5088102;28;20281;-86
2023/12/05 08:21:08;;;;;;;3.83;1.92;;;7.00;99.90;;;;;;5088721;28;20208;-86
2023/12/05 08:23:54;;;;;;;3.83;1.40;;;7.10;99.90;;;;;;5084945;28;20227;-86
2023/12/05 08:26:40;;;;;;;7.10;1.57;;;7.20;99.90;;;;;;5088424;28;20207;-86
2023/12/05 08:29:26;;;;;;;4.68;1.60;;;7.20;99.90;;;;;;5090892;28;20500;-86
2023/12/05 08:32:11;;;;;;;4.80;1.60;;;7.20;99.90;;;;;;5087779;28;20254;-86
2023/12/05 08:34:58;;;;;;;2.72;1.58;;;7.20;99.90;;;;;;5088299;28;20820;-86
2023/12/05 08:37:44;;;;;;;4.70;1.55;;;7.30;99.90;;;;;;5088833;28;20265;-86
2023/12/05 08:40:29;;;;;;;4.80;1.88;;;7.30;99.90;;;;;;5074971;28;20205;-86
2023/12/05 08:43:15;;;;;;;3.37;1.83;;;7.30;99.90;;;;;;5089538;28;20652;-86
2023/12/05 08:46:02;;;;;;;2.90;1.30;;;7.30;99.90;;;;;;5086316;28;20529;-86
2023/12/05 08:48:48;;;;;;;2.70;1.65;;;7.30;99.90;;;;;;5087135;28;20440;-85
2023/12/05 08:51:35;;;;;;;2.80;1.40;;;7.30;99.90;;;;;;5084075;28;20351;-86
2023/12/05 08:54:21;;;;;;;5.22;1.70;;;7.30;99.90;;;;;;5087820;28;20450;-86
2023/12/05 08:57:07;;;;;;;5.68;1.63;;;7.30;99.90;;;;;;5086284;28;20204;-86
2023/12/05 08:59:52;;;;;;;4.85;2.10;;;7.30;99.90;;;;;;5082873;28;20223;-86
2023/12/05 09:02:38;;;;;;;3.20;2.20;;;7.40;99.90;;;;;;5083463;28;20203;-86
2023/12/05 09:05:24;;;;;;;6.60;2.60;;;7.30;99.90;;;;;;5088822;28;20430;-86
2023/12/05 09:08:11;;;;;;;5.68;2.00;;;7.40;99.90;;;;;;5089310;28;21076;-84
2023/12/05 09:10:57;;;;;;;5.07;1.70;;;7.40;99.90;;;;;;5090428;28;20325;-86
2023/12/05 09:13:42;;;;;;;2.80;1.20;;;7.40;99.90;;;;;;5088173;28;20453;-86
2023/12/05 09:16:28;;;;;;;3.83;1.27;;;7.40;99.90;;;;;;5080083;28;20199;-85
2023/12/05 09:19:14;;;;;;;10.23;2.50;;;7.40;99.90;;;;;;5085130;28;21008;-86
2023/12/05 09:21:59;;;;;;;8.45;1.40;;;7.40;99.90;;;;;;5085380;28;20203;-85
2023/12/05 09:24:46;;;;;;;2.83;1.50;;;7.40;99.90;;;;;;5088144;28;20950;-85
2023/12/05 09:27:32;;;;;;;2.97;1.23;;;7.40;99.90;;;;;;5084383;28;20939;-85
2023/12/05 09:30:18;;;;;;;4.05;1.70;;;7.40;99.90;;;;;;5089664;28;20195;-85
2023/12/05 09:33:04;;;;;;;7.25;1.70;;;7.40;99.90;;;;;;5083860;28;20223;-86
2023/12/05 09:35:50;;;;;;;7.03;1.57;;;7.50;99.90;;;;;;5088035;28;20830;-85
2023/12/05 09:38:36;;;;;;;3.30;1.47;;;7.50;99.90;;;;;;5088719;28;20461;-86
2023/12/05 09:41:23;;;;;;;2.50;1.33;;;7.50;99.90;;;;;;5088179;28;20927;-85
2023/12/05 09:44:09;;;;;;;3.27;1.40;;;7.50;99.90;;;;;;5086837;28;20439;-85
2023/12/05 09:47:01;;;;;;;5.50;1.40;;;7.50;99.90;;;;;;5086839;28;20556;-85
2023/12/05 09:49:47;;;;;;;5.43;1.70;;;7.50;99.90;;;;;;5084954;28;20201;-85
2023/12/05 09:52:33;;;;;;;4.30;1.50;;;7.50;99.90;;;;;;5084482;28;20550;-86
2023/12/05 09:55:19;;;;;;;5.13;2.28;;;7.50;99.90;;;;;;5089532;28;20429;-85
2023/12/05 09:58:07;;;;;;;2.93;1.50;;;7.50;99.90;;;;;;5087040;28;20211;-85
2023/12/05 10:00:53;;;;;;;7.93;2.23;;;7.50;99.90;;;;;;5084451;28;20428;-85
2023/12/05 10:03:40;;;;;;;8.30;2.75;;;7.50;99.90;;;;;;5072435;28;20462;-85
2023/12/05 10:06:27;;;;;;;4.68;2.50;;;7.40;99.90;;;;;;5069146;28;20219;-85
2023/12/05 10:09:15;;;;;;;4.27;1.93;;;7.40;99.90;;;;;;5074863;28;20578;-84
2023/12/05 10:12:01;;;;;;;11.97;1.80;;;7.50;99.90;;;;;;5072649;28;20531;-85
2023/12/05 10:14:48;;;;;;;4.30;1.90;;;7.50;99.90;;;;;;5085354;28;20474;-86
2023/12/05 10:17:35;;;;;;;4.85;2.72;;;7.50;99.90;;;;;;5067196;28;20459;-84
2023/12/05 10:20:21;;;;;;;6.28;2.80;;;7.50;99.90;;;;;;5059711;28;20219;-86
2023/12/05 10:23:06;;;;;;;13.00;10.18;;;7.50;99.90;;;;;;5077114;28;20222;-86
2023/12/05 10:25:52;;;;;;;5.28;3.25;;;7.50;99.90;;;;;;5073109;28;20719;-86
2023/12/05 10:28:50;;;;;;;6.85;1.65;;;7.50;99.90;;;;;;5075826;28;20771;-85
2023/12/05 10:31:37;;;;;;;4.00;1.55;;;7.50;99.90;;;;;;5082803;28;20199;-87
2023/12/05 10:34:23;;;;;;;3.97;1.92;;;7.50;99.90;;;;;;5082549;28;20717;-87
2023/12/05 10:37:09;;;;;;;5.20;1.90;;;7.50;99.90;;;;;;5084444;28;20256;-86
2023/12/05 10:39:58;;;;;;;5.10;2.10;;;7.50;99.90;;;;;;5084625;28;20482;-86
2023/12/05 10:42:44;;;;;;;3.45;1.20;;;7.50;99.90;;;;;;5087051;28;20562;-85
2023/12/05 10:45:30;;;;;;;2.60;1.55;;;7.50;99.90;;;;;;5092932;28;20626;-85
2023/12/05 10:48:18;;;;;;;2.77;1.40;;;7.40;99.90;;;;;;5091601;28;20797;-86
2023/12/05 10:51:04;;;;;;;2.60;1.50;;;7.40;99.90;;;;;;5089895;28;20470;-85
2023/12/05 10:53:49;;;;;;;4.37;1.80;;;7.40;99.90;;;;;;5092492;28;20599;-86
2023/12/05 10:56:35;;;;;;;3.90;1.70;;;7.40;99.90;;;;;;5079229;28;20497;-87
2023/12/05 10:59:22;;;;;;;16.27;7.10;;;7.40;99.90;;;;;;5084930;28;20612;-86
2023/12/05 11:02:13;;;;;;;5.83;1.83;;;7.40;99.90;;;;;;5086605;28;20427;-86
2023/12/05 11:05:04;;;;;;;5.33;2.73;;;7.40;99.90;;;;;;5091610;28;20449;-85
2023/12/05 11:07:51;;;;;;;5.10;2.00;;;7.40;99.90;;;;;;5093248;28;20486;-86
2023/12/05 11:10:38;;;;;;;6.00;1.67;;;7.40;99.90;;;;;;5081395;28;20418;-86
2023/12/05 11:13:24;;;;;;;4.50;1.50;;;7.40;99.90;;;;;;5092962;28;20451;-86
2023/12/05 11:16:17;;;;;;;7.33;2.23;;;7.40;99.90;;;;;;5089932;28;20504;-85
2023/12/05 11:19:12;;;;;;;3.67;1.47;;;7.40;99.90;;;;;;5091164;28;20478;-86
2023/12/05 11:22:12;;;;;;;3.65;1.40;;;7.50;99.90;;;;;;5090920;28;20630;-85
2023/12/05 11:25:16;;;;;;;3.40;1.45;;;7.50;99.90;;;;;;5085793;28;20234;-86
2023/12/05 11:28:17;;;;;;;3.57;1.60;;;7.50;99.90;;;;;;5091566;28;20297;-86
2023/12/05 11:31:14;;;;;;;5.03;1.47;;;7.50;99.90;;;;;;5086717;28;20913;-86
2023/12/05 11:34:31;;;;;;;5.43;1.40;;;7.50;99.90;;;;;;5092190;28;20467;-86
2023/12/05 11:37:42;;;;;;;6.93;1.73;;;7.60;99.90;;;;;;5091533;28;20556;-85
2023/12/05 11:40:27;;;;;;;2.90;1.60;;;7.50;99.90;;;;;;5092766;28;20617;-86
2023/12/05 11:43:14;;;;;;;6.43;2.60;;;7.60;99.90;;;;;;5091777;28;20460;-85
2023/12/05 11:45:59;;;;;;;5.63;1.97;;;7.50;99.90;;;;;;5092447;28;21010;-86
2023/12/05 11:48:45;;;;;;;6.13;2.30;;;7.50;99.90;;;;;;5087366;28;20477;-86
2023/12/05 11:51:31;;;;;;;4.33;1.80;;;7.50;99.90;;;;;;5092344;28;20425;-86
2023/12/05 11:54:18;;;;;;;6.40;2.20;;;7.50;99.90;;;;;;5091137;28;20442;-86
2023/12/05 11:57:14;;;;;;;5.30;1.47;;;7.50;99.90;;;;;;5091621;28;20510;-86
2023/12/05 12:00:00;;;;;;;3.47;1.33;;;7.50;99.90;;;;;;5088852;28;20488;-86
2023/12/05 12:02:49;;;;;;;8.33;2.17;;;7.60;99.90;;;;;;5083130;28;20473;-86
2023/12/05 12:05:35;;;;;;;3.70;1.70;;;7.60;99.90;;;;;;5088771;28;20426;-87
2023/12/05 12:08:21;;;;;;;5.23;1.40;;;7.60;99.90;;;;;;5092197;28;20443;-86
2023/12/05 12:11:08;;;;;;;5.53;1.60;;;7.50;99.90;;;;;;5091228;28;20782;-85
2023/12/05 12:13:55;;;;;;;7.80;2.00;;;7.50;99.90;;;;;;5091830;28;20533;-87
2023/12/05 12:16:40;;;;;;;3.37;1.90;;;7.60;99.90;;;;;;5075330;28;20434;-84
2023/12/05 12:19:27;;;;;;;3.00;1.50;;;7.60;99.90;;;;;;5069644;28;20455;-83
2023/12/05 12:22:12;;;;;;;8.13;4.77;;;7.50;99.90;;;;;;5086308;28;20579;-84
2023/12/05 12:25:05;;;;;;;2.95;1.70;;;7.50;99.90;;;;;;5091757;28;20455;-84
2023/12/05 12:27:52;;;;;;;11.43;2.73;;;7.60;99.90;;;;;;5092481;28;20212;-84
2023/12/05 12:30:38;;;;;;;4.37;2.60;;;7.50;99.90;;;;;;5092457;28;20439;-87
2023/12/05 12:33:36;;;;;;;4.90;2.77;;;7.50;99.90;;;;;;5092043;28;20458;-85
2023/12/05 12:36:23;;;;;;;8.80;4.80;;;7.50;99.90;;;;;;5093640;28;20460;-85
2023/12/05 12:39:13;;;;;;;4.80;3.50;;;7.60;99.90;;;;;;5076961;28;20471;-84
2023/12/05 12:42:00;;;;;;;4.90;3.73;;;7.60;99.90;;;;;;5082072;28;20440;-84
2023/12/05 12:44:47;;;;;;;3.57;2.63;;;7.60;99.90;;;;;;5077724;28;20457;-85
2023/12/05 12:47:33;;;;;;;3.27;1.53;;;7.60;99.90;;;;;;5070264;28;20451;-83
2023/12/05 12:50:19;;;;;;;2.90;1.27;;;7.60;99.90;;;;;;5073146;28;20430;-85
2023/12/05 12:53:06;;;;;;;11.00;1.67;;;7.60;99.90;;;;;;5073073;28;21214;-84
2023/12/05 12:55:52;;;;;;;3.80;2.00;;;7.60;99.90;;;;;;5072501;28;20429;-84
2023/12/05 12:58:39;;;;;;;3.03;1.47;;;7.60;99.90;;;;;;5077595;28;20917;-84
2023/12/05 13:01:26;;;;;;;2.43;1.23;;;7.60;99.90;;;;;;5064939;28;21192;-84
2023/12/05 13:04:13;;;;;;;2.10;1.30;;;7.60;99.90;;;;;;5071162;28;20453;-83
2023/12/05 13:06:59;;;;;;;4.97;2.20;;;7.50;99.90;;;;;;5073091;28;20431;-83
2023/12/05 13:09:45;;;;;;;3.00;1.55;;;7.60;99.90;;;;;;5072813;28;21177;-84
2023/12/05 13:12:31;;;;;;;2.40;1.40;;;7.60;99.90;;;;;;5068273;28;20283;-83
2023/12/05 13:15:20;;;;;;;4.45;2.17;;;7.50;99.90;;;;;;5075106;28;20472;-84
2023/12/05 13:18:08;;;;;;;6.82;2.50;;;7.50;99.90;;;;;;5082686;28;20207;-84
2023/12/05 13:20:55;;;;;;;5.83;1.50;;;7.50;99.90;;;;;;5073519;28;20355;-83
2023/12/05 13:23:41;;;;;;;3.60;1.30;;;7.50;99.90;;;;;;5082162;28;20598;-84
2023/12/05 13:26:27;;;;;;;2.70;1.70;;;7.50;99.90;;;;;;5070189;28;20213;-83
2023/12/05 13:29:13;;;;;;;2.40;1.23;;;7.40;99.90;;;;;;5076365;28;20438;-84
2023/12/05 13:31:59;;;;;;;7.80;1.83;;;7.40;99.90;;;;;;5078619;28;20198;-84
2023/12/05 13:34:46;;;;;;;2.40;1.40;;;7.40;99.90;;;;;;5067645;28;20229;-84
2023/12/05 13:37:31;;;;;;;3.10;1.70;;;7.40;99.90;;;;;;5085411;28;20532;-84
2023/12/05 13:40:17;;;;;;;3.15;1.70;;;7.40;99.90;;;;;;5089063;28;20227;-85
2023/12/05 13:43:05;;;;;;;2.95;1.50;;;7.30;99.90;;;;;;5072772;28;20731;-84
2023/12/05 13:45:51;;;;;;;3.45;1.63;;;7.40;99.90;;;;;;5073196;28;20262;-83
2023/12/05 13:48:36;;;;;;;5.47;1.50;;;7.30;99.90;;;;;;5071977;28;20204;-84
2023/12/05 13:51:23;;;;;;;2.72;1.23;;;7.30;99.90;;;;;;5088248;28;20197;-84
2023/12/05 13:54:09;;;;;;;3.90;1.48;;;7.20;99.90;;;;;;5072895;28;20309;-84
2023/12/05 13:56:56;;;;;;;4.88;1.70;;;7.20;99.90;;;;;;5079403;28;20586;-85
2023/12/05 13:59:42;;;;;;;1.65;1.05;;;7.10;99.90;;;;;;5064368;28;20312;-83
2023/12/05 14:02:28;;;;;;;2.50;1.38;;;7.10;99.90;;;;;;5074696;28;20208;-84
2023/12/05 14:05:13;;;;;;;2.78;1.42;;;6.90;99.90;;;;;;5082090;28;20756;-84
2023/12/05 14:08:01;;;;;;;6.07;1.93;;;6.90;99.90;;;;;;5082124;28;20629;-83
2023/12/05 14:10:47;;;;;;;5.30;1.40;;;6.90;99.90;;;;;;5072642;28;20423;-84
2023/12/05 14:13:34;;;;;;;4.10;1.95;;;6.80;99.90;;;;;;5088040;28;20871;-86
2023/12/05 14:16:20;;;;;;;4.90;1.45;;;6.70;99.90;;;;;;5075509;28;20206;-85
2023/12/05 14:19:05;;;;;;;4.18;1.70;;;6.70;99.90;;;;;;5080632;28;20206;-86
2023/12/05 14:21:51;;;;;;;3.03;1.35;;;6.70;99.90;;;;;;5082781;28;20750;-84
2023/12/05 14:24:38;;;;;;;3.83;2.40;;;6.70;99.90;;;;;;5080410;28;20224;-85
2023/12/05 14:27:24;;;;;;;4.72;1.70;;;6.70;99.90;;;;;;5090974;28;20465;-84
2023/12/05 14:30:10;;;;;;;2.75;1.45;;;6.70;99.90;;;;;;5086905;28;20575;-85
2023/12/05 14:32:56;;;;;;;4.82;1.75;;;6.70;99.90;;;;;;5079160;28;20208;-84
2023/12/05 14:35:41;;;;;;;2.15;1.50;;;6.60;99.90;;;;;;5071693;28;20846;-84